createdAt,value
2019-01-27T00:00:27.538Z,87.99
2019-01-27T00:01:27.528Z,87.79
2019-01-27T00:02:27.514Z,87.89
2019-01-27T00:03:27.515Z,88.31
2019-01-27T00:04:27.540Z,88.31
2019-01-27T00:05:27.490Z,88.41
2019-01-27T00:06:27.465Z,88.55
2019-01-27T00:07:27.467Z,88.71
2019-01-27T00:08:27.445Z,88.71
2019-01-27T00:09:27.433Z,88.86
2019-01-27T00:10:27.467Z,88.61
2019-01-27T00:11:27.410Z,88.55
2019-01-27T00:12:27.400Z,88.51
2019-01-27T00:13:27.389Z,88.96
2019-01-27T00:14:27.392Z,88.76
2019-01-27T00:15:27.377Z,88.82
2019-01-27T00:16:27.405Z,88.76
2019-01-27T00:17:27.345Z,88.41
2019-01-27T00:18:27.336Z,88.55
2019-01-27T00:19:27.324Z,88.71
2019-01-27T00:20:27.320Z,88.65
2019-01-27T00:21:27.308Z,88.71
2019-01-27T00:22:27.493Z,88.82
2019-01-27T00:23:27.281Z,88.31
2019-01-27T00:24:27.270Z,88.51
2019-01-27T00:25:27.260Z,88.41
2019-01-27T00:26:27.253Z,88.31
2019-01-27T00:27:27.237Z,88.51
2019-01-27T00:28:27.266Z,88.51
2019-01-27T00:29:27.214Z,88.41
2019-01-27T00:30:27.206Z,88.31
2019-01-27T00:31:27.194Z,88.41
2019-01-27T00:32:27.183Z,88.31
2019-01-27T00:33:27.174Z,88.31
2019-01-27T00:34:27.216Z,88.41
2019-01-27T00:35:27.168Z,88.41
2019-01-27T00:36:27.160Z,87.79
2019-01-27T00:37:27.129Z,87.74
2019-01-27T00:38:27.116Z,87.44
2019-01-27T00:39:27.106Z,87.48
2019-01-27T00:40:27.133Z,87.37
2019-01-27T00:41:27.088Z,86.71
2019-01-27T00:42:27.085Z,87.07
2019-01-27T00:43:27.069Z,86.82
2019-01-27T00:44:27.056Z,86.82
2019-01-27T00:45:27.058Z,86.82
2019-01-27T00:46:27.083Z,86.92
2019-01-27T00:47:27.061Z,86.92
2019-01-27T00:48:27.026Z,86.78
2019-01-27T00:49:27.004Z,87.23
2019-01-27T00:50:26.996Z,87.13
2019-01-27T00:51:26.991Z,87.74
2019-01-27T00:52:27.012Z,87.13
2019-01-27T00:53:26.961Z,87.65
2019-01-27T00:54:26.947Z,87.44
2019-01-27T00:55:26.941Z,87.23
2019-01-27T00:56:26.935Z,87.34
2019-01-27T00:57:26.933Z,87.54
2019-01-27T00:58:26.946Z,87.54
2019-01-27T00:59:26.890Z,88.16
2019-01-27T01:00:26.881Z,88.37
2019-01-27T01:01:26.883Z,88.37
2019-01-27T01:02:26.873Z,88.57
2019-01-27T01:03:26.858Z,88.47
2019-01-27T01:04:26.870Z,88.57
2019-01-27T01:05:26.832Z,87.65
2019-01-27T01:06:26.823Z,87.23
2019-01-27T01:07:26.819Z,87.40
2019-01-27T01:08:26.793Z,87.65
2019-01-27T01:09:26.789Z,87.40
2019-01-27T01:10:26.815Z,87.74
2019-01-27T01:11:26.769Z,87.54
2019-01-27T01:12:26.755Z,87.85
2019-01-27T01:13:26.751Z,87.74
2019-01-27T01:14:26.750Z,88.47
2019-01-27T01:15:26.728Z,88.26
2019-01-27T01:16:26.786Z,88.32
2019-01-27T01:17:26.700Z,88.22
2019-01-27T01:18:26.684Z,88.57
2019-01-27T01:19:26.698Z,88.98
2019-01-27T01:20:26.669Z,88.78
2019-01-27T01:21:26.654Z,89.29
2019-01-27T01:22:26.692Z,89.71
2019-01-27T01:23:26.656Z,90.02
2019-01-27T01:24:26.629Z,90.12
2019-01-27T01:25:26.628Z,89.71
2019-01-27T01:26:26.608Z,89.92
2019-01-27T01:27:26.593Z,90.12
2019-01-27T01:28:26.615Z,89.81
2019-01-27T01:29:26.569Z,90.02
2019-01-27T01:30:26.559Z,90.22
2019-01-27T01:31:28.037Z,90.06
2019-01-27T01:32:26.554Z,90.47
2019-01-27T01:33:26.527Z,89.95
2019-01-27T01:34:26.558Z,89.92
2019-01-27T01:35:26.504Z,90.02
2019-01-27T01:36:26.500Z,90.22
2019-01-27T01:37:26.485Z,89.71
2019-01-27T01:38:26.501Z,89.29
2019-01-27T01:39:26.461Z,89.13
2019-01-27T01:40:26.488Z,89.44
2019-01-27T01:41:26.457Z,89.29
2019-01-27T01:42:26.441Z,89.19
2019-01-27T01:43:26.417Z,89.13
2019-01-27T01:44:26.428Z,88.89
2019-01-27T01:45:26.398Z,89.09
2019-01-27T01:46:26.437Z,88.68
2019-01-27T01:47:26.373Z,88.16
2019-01-27T01:48:26.369Z,88.89
2019-01-27T01:49:26.376Z,88.06
2019-01-27T01:50:26.361Z,88.57
2019-01-27T01:51:26.358Z,88.47
2019-01-27T01:52:26.496Z,88.06
2019-01-27T01:53:26.331Z,88.16
2019-01-27T01:54:26.308Z,88.37
2019-01-27T01:55:26.288Z,88.37
2019-01-27T01:56:26.279Z,88.16
2019-01-27T01:57:26.273Z,88.26
2019-01-27T01:58:26.290Z,88.47
2019-01-27T01:59:26.276Z,88.37
2019-01-27T02:00:26.247Z,88.57
2019-01-27T02:01:26.224Z,88.32
2019-01-27T02:02:26.222Z,88.02
2019-01-27T02:03:26.202Z,88.37
2019-01-27T02:04:26.478Z,88.47
2019-01-27T02:05:26.183Z,88.37
2019-01-27T02:06:26.172Z,88.12
2019-01-27T02:07:26.162Z,88.26
2019-01-27T02:08:26.151Z,87.95
2019-01-27T02:09:26.137Z,88.37
2019-01-27T02:10:26.166Z,88.16
2019-01-27T02:11:26.117Z,88.57
2019-01-27T02:12:26.106Z,88.06
2019-01-27T02:13:26.095Z,88.26
2019-01-27T02:14:26.117Z,88.37
2019-01-27T02:15:26.084Z,88.57
2019-01-27T02:16:26.123Z,88.57
2019-01-27T02:17:26.061Z,88.26
2019-01-27T02:18:26.039Z,88.16
2019-01-27T02:19:26.042Z,88.26
2019-01-27T02:20:26.028Z,88.37
2019-01-27T02:21:26.011Z,88.41
2019-01-27T02:22:26.031Z,88.26
2019-01-27T02:23:26.000Z,88.06
2019-01-27T02:24:26.016Z,88.31
2019-01-27T02:25:25.970Z,88.26
2019-01-27T02:26:25.980Z,88.51
2019-01-27T02:27:25.956Z,88.37
2019-01-27T02:28:26.127Z,88.57
2019-01-27T02:29:25.920Z,88.51
2019-01-27T02:30:25.915Z,87.74
2019-01-27T02:31:25.915Z,87.85
2019-01-27T02:32:25.927Z,87.99
2019-01-27T02:33:25.895Z,87.54
2019-01-27T02:34:25.962Z,87.54
2019-01-27T02:35:25.856Z,87.44
2019-01-27T02:36:25.852Z,87.65
2019-01-27T02:37:25.843Z,87.44
2019-01-27T02:38:25.823Z,87.13
2019-01-27T02:39:25.815Z,87.58
2019-01-27T02:40:25.846Z,87.74
2019-01-27T02:41:25.826Z,87.44
2019-01-27T02:42:25.780Z,87.74
2019-01-27T02:43:25.773Z,87.68
2019-01-27T02:44:25.791Z,87.27
2019-01-27T02:45:25.751Z,87.07
2019-01-27T02:46:25.806Z,87.23
2019-01-27T02:47:25.738Z,87.13
2019-01-27T02:48:25.715Z,87.13
2019-01-27T02:49:25.730Z,86.82
2019-01-27T02:50:25.691Z,86.82
2019-01-27T02:51:25.708Z,87.23
2019-01-27T02:52:25.723Z,87.02
2019-01-27T02:53:25.655Z,87.02
2019-01-27T02:54:25.694Z,86.96
2019-01-27T02:55:25.664Z,86.92
2019-01-27T02:56:25.642Z,87.34
2019-01-27T02:57:25.617Z,87.34
2019-01-27T02:58:25.647Z,86.92
2019-01-27T02:59:25.590Z,87.13
2019-01-27T03:00:25.600Z,87.44
2019-01-27T03:01:25.600Z,87.23
2019-01-27T03:02:25.560Z,86.71
2019-01-27T03:03:25.545Z,87.23
2019-01-27T03:04:25.595Z,87.17
2019-01-27T03:05:25.538Z,86.86
2019-01-27T03:06:25.522Z,87.17
2019-01-27T03:07:25.510Z,87.02
2019-01-27T03:08:25.506Z,87.13
2019-01-27T03:09:25.489Z,86.61
2019-01-27T03:10:25.511Z,87.37
2019-01-27T03:11:25.470Z,87.74
2019-01-27T03:12:25.449Z,87.13
2019-01-27T03:13:25.447Z,87.68
2019-01-27T03:14:25.439Z,87.68
2019-01-27T03:15:25.419Z,87.48
2019-01-27T03:16:25.442Z,87.48
2019-01-27T03:17:25.401Z,87.65
2019-01-27T03:18:25.389Z,87.58
2019-01-27T03:19:25.378Z,87.48
2019-01-27T03:20:25.362Z,87.58
2019-01-27T03:21:25.357Z,87.68
2019-01-27T03:22:25.394Z,88.20
2019-01-27T03:23:25.336Z,88.20
2019-01-27T03:24:25.317Z,88.20
2019-01-27T03:25:25.316Z,88.41
2019-01-27T03:26:25.297Z,88.31
2019-01-27T03:27:25.284Z,88.31
2019-01-27T03:28:25.305Z,88.41
2019-01-27T03:29:25.266Z,88.20
2019-01-27T03:30:25.254Z,88.51
2019-01-27T03:31:25.244Z,87.99
2019-01-27T03:32:25.232Z,88.31
2019-01-27T03:33:25.224Z,87.99
2019-01-27T03:34:25.260Z,87.99
2019-01-27T03:35:25.198Z,88.41
2019-01-27T03:36:25.188Z,88.92
2019-01-27T03:37:25.177Z,89.03
2019-01-27T03:38:25.165Z,88.92
2019-01-27T03:39:25.169Z,88.82
2019-01-27T03:40:25.195Z,89.13
2019-01-27T03:41:25.134Z,89.23
2019-01-27T03:42:25.127Z,89.03
2019-01-27T03:43:25.112Z,88.92
2019-01-27T03:44:25.101Z,88.57
2019-01-27T03:45:25.099Z,88.61
2019-01-27T03:46:25.109Z,89.03
2019-01-27T03:47:25.069Z,89.23
2019-01-27T03:48:25.058Z,89.13
2019-01-27T03:49:25.048Z,89.75
2019-01-27T03:50:25.038Z,89.65
2019-01-27T03:51:25.047Z,89.86
2019-01-27T03:52:25.072Z,90.16
2019-01-27T03:53:25.006Z,90.20
2019-01-27T03:54:24.995Z,90.10
2019-01-27T03:55:24.983Z,90.20
2019-01-27T03:56:24.972Z,89.89
2019-01-27T03:57:24.963Z,89.79
2019-01-27T03:58:24.993Z,90.10
2019-01-27T03:59:24.944Z,90.00
2019-01-27T04:00:24.940Z,89.89
2019-01-27T04:01:25.359Z,89.89
2019-01-27T04:02:24.916Z,90.00
2019-01-27T04:03:24.904Z,89.69
2019-01-27T04:04:24.926Z,90.31
2019-01-27T04:05:24.897Z,90.14
2019-01-27T04:06:24.864Z,90.14
2019-01-27T04:07:24.854Z,90.00
2019-01-27T04:08:24.848Z,90.25
2019-01-27T04:09:24.843Z,90.56
2019-01-27T04:10:24.856Z,90.25
2019-01-27T04:11:24.919Z,90.77
2019-01-27T04:12:24.798Z,90.77
2019-01-27T04:13:24.793Z,90.77
2019-01-27T04:14:24.780Z,90.60
2019-01-27T04:15:24.766Z,90.91
2019-01-27T04:16:24.805Z,91.53
2019-01-27T04:17:24.745Z,91.63
2019-01-27T04:18:24.735Z,91.63
2019-01-27T04:19:24.733Z,91.53
2019-01-27T04:20:24.724Z,91.42
2019-01-27T04:21:24.703Z,91.47
2019-01-27T04:22:24.747Z,91.84
2019-01-27T04:23:24.694Z,92.05
2019-01-27T04:24:24.674Z,92.15
2019-01-27T04:25:24.675Z,92.25
2019-01-27T04:26:24.652Z,92.36
2019-01-27T04:27:24.637Z,92.15
2019-01-27T04:28:24.661Z,92.46
2019-01-27T04:29:24.617Z,92.05
2019-01-27T04:30:24.610Z,92.25
2019-01-27T04:31:24.600Z,92.05
2019-01-27T04:32:24.595Z,92.46
2019-01-27T04:33:24.579Z,91.90
2019-01-27T04:34:24.613Z,92.21
2019-01-27T04:35:24.552Z,91.90
2019-01-27T04:36:24.546Z,91.59
2019-01-27T04:37:24.534Z,91.69
2019-01-27T04:38:24.523Z,91.17
2019-01-27T04:39:24.513Z,91.80
2019-01-27T04:40:24.551Z,91.59
2019-01-27T04:41:24.488Z,91.28
2019-01-27T04:42:24.478Z,91.63
2019-01-27T04:43:24.464Z,91.94
2019-01-27T04:44:24.459Z,91.94
2019-01-27T04:45:24.450Z,92.15
2019-01-27T04:46:24.476Z,92.25
2019-01-27T04:47:24.436Z,92.36
2019-01-27T04:48:24.431Z,92.15
2019-01-27T04:49:24.406Z,92.25
2019-01-27T04:50:24.399Z,92.36
2019-01-27T04:51:24.381Z,92.30
2019-01-27T04:52:24.411Z,92.71
2019-01-27T04:53:24.366Z,92.15
2019-01-27T04:54:24.345Z,91.63
2019-01-27T04:55:24.344Z,91.11
2019-01-27T04:56:24.329Z,90.66
2019-01-27T04:57:24.316Z,90.77
2019-01-27T04:58:24.349Z,90.35
2019-01-27T04:59:24.292Z,90.14
2019-01-27T05:00:24.294Z,90.25
2019-01-27T05:01:24.275Z,90.19
2019-01-27T05:02:24.260Z,90.29
2019-01-27T05:03:24.262Z,90.60
2019-01-27T05:04:24.271Z,90.04
2019-01-27T05:05:24.233Z,89.94
2019-01-27T05:06:24.218Z,90.25
2019-01-27T05:07:24.201Z,90.14
2019-01-27T05:08:24.198Z,90.25
2019-01-27T05:09:24.186Z,90.25
2019-01-27T05:10:24.205Z,89.22
2019-01-27T05:11:24.165Z,88.70
2019-01-27T05:12:24.150Z,89.42
2019-01-27T05:13:24.141Z,89.42
2019-01-27T05:14:24.131Z,89.52
2019-01-27T05:15:24.127Z,89.22
2019-01-27T05:16:24.158Z,89.42
2019-01-27T05:17:24.098Z,88.90
2019-01-27T05:18:24.087Z,89.22
2019-01-27T05:19:24.077Z,89.22
2019-01-27T05:20:24.066Z,89.42
2019-01-27T05:21:24.058Z,89.32
2019-01-27T05:22:24.076Z,89.11
2019-01-27T05:23:24.030Z,89.25
2019-01-27T05:24:24.071Z,89.32
2019-01-27T05:25:24.019Z,89.83
2019-01-27T05:26:23.999Z,90.39
2019-01-27T05:27:25.399Z,89.87
2019-01-27T05:28:24.015Z,90.14
2019-01-27T05:29:23.965Z,89.94
2019-01-27T05:30:23.960Z,89.87
2019-01-27T05:31:23.947Z,90.29
2019-01-27T05:32:23.936Z,90.39
2019-01-27T05:33:23.934Z,90.39
2019-01-27T05:34:23.947Z,90.29
2019-01-27T05:35:23.898Z,90.29
2019-01-27T05:36:23.896Z,90.19
2019-01-27T05:37:23.881Z,90.29
2019-01-27T05:38:23.866Z,90.39
2019-01-27T05:39:23.873Z,89.22
2019-01-27T05:40:23.897Z,89.42
2019-01-27T05:41:23.835Z,89.11
2019-01-27T05:42:23.823Z,89.11
2019-01-27T05:43:23.823Z,89.11
2019-01-27T05:44:23.803Z,89.46
2019-01-27T05:45:23.810Z,89.15
2019-01-27T05:46:23.818Z,89.15
2019-01-27T05:47:23.771Z,88.80
2019-01-27T05:48:23.758Z,87.97
2019-01-27T05:49:23.751Z,88.39
2019-01-27T05:50:23.738Z,88.49
2019-01-27T05:51:23.732Z,88.80
2019-01-27T05:52:23.775Z,88.39
2019-01-27T05:53:23.728Z,88.28
2019-01-27T05:54:23.699Z,88.18
2019-01-27T05:55:23.699Z,87.97
2019-01-27T05:56:23.681Z,88.07
2019-01-27T05:57:23.662Z,88.70
2019-01-27T05:58:23.680Z,88.39
2019-01-27T05:59:23.647Z,88.39
2019-01-27T06:00:23.642Z,88.12
2019-01-27T06:01:23.621Z,89.01
2019-01-27T06:02:23.609Z,88.28
2019-01-27T06:03:23.598Z,88.80
2019-01-27T06:04:23.622Z,88.28
2019-01-27T06:05:23.578Z,88.80
2019-01-27T06:06:23.570Z,88.70
2019-01-27T06:07:23.554Z,88.80
2019-01-27T06:08:23.545Z,88.59
2019-01-27T06:09:23.533Z,88.70
2019-01-27T06:10:23.569Z,88.39
2019-01-27T06:11:23.511Z,88.59
2019-01-27T06:12:23.506Z,88.28
2019-01-27T06:13:23.492Z,88.07
2019-01-27T06:14:23.483Z,87.97
2019-01-27T06:15:23.474Z,88.24
2019-01-27T06:16:23.525Z,87.73
2019-01-27T06:17:23.452Z,87.41
2019-01-27T06:18:23.441Z,86.96
2019-01-27T06:19:23.427Z,87.10
2019-01-27T06:20:23.427Z,86.76
2019-01-27T06:21:23.409Z,87.10
2019-01-27T06:22:23.450Z,86.96
2019-01-27T06:23:23.386Z,86.55
2019-01-27T06:24:23.374Z,86.44
2019-01-27T06:25:26.103Z,86.34
2019-01-27T06:26:23.350Z,86.03
2019-01-27T06:27:23.338Z,85.93
2019-01-27T06:28:23.363Z,86.03
2019-01-27T06:29:23.316Z,85.93
2019-01-27T06:30:23.312Z,86.03
2019-01-27T06:31:23.296Z,85.97
2019-01-27T06:32:23.284Z,85.97
2019-01-27T06:33:23.279Z,85.52
2019-01-27T06:34:23.315Z,85.97
2019-01-27T06:35:23.255Z,85.97
2019-01-27T06:36:23.242Z,86.28
2019-01-27T06:37:24.892Z,86.18
2019-01-27T06:38:23.221Z,86.59
2019-01-27T06:39:23.207Z,86.83
2019-01-27T06:40:23.242Z,87.04
2019-01-27T06:41:23.191Z,86.94
2019-01-27T06:42:23.178Z,87.04
2019-01-27T06:43:23.165Z,86.83
2019-01-27T06:44:23.153Z,86.94
2019-01-27T06:45:23.142Z,87.25
2019-01-27T06:46:23.175Z,87.08
2019-01-27T06:47:23.121Z,87.25
2019-01-27T06:48:23.116Z,87.25
2019-01-27T06:49:23.099Z,86.83
2019-01-27T06:50:23.088Z,86.63
2019-01-27T06:51:23.078Z,86.49
2019-01-27T06:52:23.100Z,85.97
2019-01-27T06:53:23.056Z,85.80
2019-01-27T06:54:23.055Z,86.07
2019-01-27T06:55:23.086Z,85.45
2019-01-27T06:56:23.025Z,85.04
2019-01-27T06:57:23.032Z,85.76
2019-01-27T06:58:23.069Z,85.49
2019-01-27T06:59:22.997Z,85.18
2019-01-27T07:00:22.994Z,85.08
2019-01-27T07:01:22.970Z,85.14
2019-01-27T07:02:29.357Z,85.04
2019-01-27T07:03:24.064Z,85.28
2019-01-27T07:04:22.937Z,84.87
2019-01-27T07:05:22.932Z,85.39
2019-01-27T07:06:22.917Z,85.28
2019-01-27T07:07:22.926Z,85.60
2019-01-27T07:08:22.899Z,85.28
2019-01-27T07:09:22.922Z,84.97
2019-01-27T07:10:22.873Z,85.28
2019-01-27T07:11:22.858Z,85.49
2019-01-27T07:12:22.849Z,85.70
2019-01-27T07:13:22.844Z,85.49
2019-01-27T07:14:22.834Z,85.70
2019-01-27T07:15:23.121Z,85.74
2019-01-27T07:16:22.805Z,85.84
2019-01-27T07:17:22.798Z,85.63
2019-01-27T07:18:22.784Z,85.74
2019-01-27T07:19:22.774Z,85.74
2019-01-27T07:20:22.769Z,85.63
2019-01-27T07:21:22.790Z,85.74
2019-01-27T07:22:22.751Z,85.63
2019-01-27T07:23:22.730Z,85.74
2019-01-27T07:24:22.719Z,85.11
2019-01-27T07:25:22.718Z,85.22
2019-01-27T07:26:22.701Z,85.74
2019-01-27T07:27:22.715Z,85.53
2019-01-27T07:28:22.677Z,85.74
2019-01-27T07:29:22.678Z,85.68
2019-01-27T07:30:22.654Z,85.88
2019-01-27T07:31:22.661Z,85.94
2019-01-27T07:32:22.650Z,85.99
2019-01-27T07:33:22.662Z,86.19
2019-01-27T07:34:22.626Z,86.09
2019-01-27T07:35:22.602Z,86.29
2019-01-27T07:36:22.586Z,86.09
2019-01-27T07:37:22.578Z,86.50
2019-01-27T07:38:22.567Z,86.25
2019-01-27T07:39:22.592Z,85.84
2019-01-27T07:40:22.543Z,86.11
2019-01-27T07:41:22.541Z,86.05
2019-01-27T07:42:22.527Z,86.36
2019-01-27T07:43:22.509Z,85.94
2019-01-27T07:44:22.504Z,86.36
2019-01-27T07:45:22.520Z,86.36
2019-01-27T07:46:22.479Z,86.57
2019-01-27T07:47:22.475Z,86.57
2019-01-27T07:48:22.467Z,86.77
2019-01-27T07:49:22.447Z,86.98
2019-01-27T07:50:22.438Z,86.46
2019-01-27T07:51:22.461Z,86.32
2019-01-27T07:52:22.415Z,86.21
2019-01-27T07:53:22.405Z,86.32
2019-01-27T07:54:22.391Z,86.01
2019-01-27T07:55:22.379Z,85.70
2019-01-27T07:56:22.431Z,85.80
2019-01-27T07:57:22.419Z,85.70
2019-01-27T07:58:22.359Z,85.49
2019-01-27T07:59:22.341Z,85.80
2019-01-27T08:00:22.333Z,85.74
2019-01-27T08:01:22.319Z,85.91
2019-01-27T08:02:22.306Z,85.74
2019-01-27T08:03:22.341Z,85.74
2019-01-27T08:04:22.283Z,85.18
2019-01-27T08:05:22.276Z,84.87
2019-01-27T08:06:22.260Z,84.87
2019-01-27T08:07:22.251Z,85.08
2019-01-27T08:08:22.244Z,84.25
2019-01-27T08:09:22.279Z,84.66
2019-01-27T08:10:22.219Z,84.63
2019-01-27T08:11:22.211Z,84.31
2019-01-27T08:12:22.194Z,84.63
2019-01-27T08:13:22.184Z,84.17
2019-01-27T08:14:22.172Z,83.86
2019-01-27T08:15:22.193Z,83.45
2019-01-27T08:16:22.161Z,83.86
2019-01-27T08:17:22.142Z,83.65
2019-01-27T08:18:22.131Z,83.45
2019-01-27T08:19:22.119Z,83.72
2019-01-27T08:20:22.108Z,83.72
2019-01-27T08:21:22.135Z,83.31
2019-01-27T08:22:22.103Z,83.37
2019-01-27T08:23:22.079Z,83.51
2019-01-27T08:24:22.070Z,83.62
2019-01-27T08:25:22.063Z,83.58
2019-01-27T08:26:22.046Z,83.62
2019-01-27T08:27:22.075Z,83.62
2019-01-27T08:28:22.022Z,83.78
2019-01-27T08:29:22.016Z,83.27
2019-01-27T08:30:22.003Z,82.96
2019-01-27T08:31:21.994Z,83.17
2019-01-27T08:32:22.000Z,83.48
2019-01-27T08:33:21.999Z,83.48
2019-01-27T08:34:21.971Z,83.27
2019-01-27T08:35:21.956Z,83.06
2019-01-27T08:36:21.936Z,83.37
2019-01-27T08:37:21.928Z,83.58
2019-01-27T08:38:21.914Z,82.92
2019-01-27T08:39:21.950Z,83.37
2019-01-27T08:40:21.899Z,82.92
2019-01-27T08:41:21.883Z,82.86
2019-01-27T08:42:21.871Z,82.96
2019-01-27T08:43:21.861Z,82.71
2019-01-27T08:44:21.851Z,83.06
2019-01-27T08:45:21.900Z,83.17
2019-01-27T08:46:21.829Z,83.64
2019-01-27T08:47:21.816Z,83.03
2019-01-27T08:48:21.806Z,83.64
2019-01-27T08:49:21.794Z,82.92
2019-01-27T08:50:21.786Z,83.06
2019-01-27T08:51:21.819Z,82.96
2019-01-27T08:52:21.764Z,83.75
2019-01-27T08:53:21.751Z,82.92
2019-01-27T08:54:21.741Z,82.61
2019-01-27T08:55:21.733Z,82.10
2019-01-27T08:56:21.718Z,81.89
2019-01-27T08:57:21.755Z,81.48
2019-01-27T08:58:21.696Z,81.58
2019-01-27T08:59:21.686Z,81.89
2019-01-27T09:00:21.681Z,81.65
2019-01-27T09:01:21.666Z,81.68
2019-01-27T09:02:21.657Z,81.68
2019-01-27T09:03:21.679Z,81.03
2019-01-27T09:04:21.631Z,80.51
2019-01-27T09:05:21.621Z,80.93
2019-01-27T09:06:21.619Z,81.23
2019-01-27T09:07:21.599Z,80.41
2019-01-27T09:08:21.592Z,80.51
2019-01-27T09:09:21.628Z,80.82
2019-01-27T09:10:21.572Z,81.13
2019-01-27T09:11:21.559Z,80.82
2019-01-27T09:12:21.579Z,80.20
2019-01-27T09:13:21.536Z,79.90
2019-01-27T09:14:21.525Z,80.00
2019-01-27T09:15:21.576Z,80.30
2019-01-27T09:16:21.500Z,80.37
2019-01-27T09:17:21.644Z,79.79
2019-01-27T09:18:21.479Z,80.30
2019-01-27T09:19:21.471Z,79.38
2019-01-27T09:20:21.462Z,79.69
2019-01-27T09:21:21.490Z,78.83
2019-01-27T09:22:21.469Z,79.14
2019-01-27T09:23:21.424Z,79.65
2019-01-27T09:24:21.417Z,79.65
2019-01-27T09:25:21.403Z,80.16
2019-01-27T09:26:21.425Z,79.65
2019-01-27T09:27:21.421Z,80.37
2019-01-27T09:28:21.367Z,80.06
2019-01-27T09:29:21.360Z,79.44
2019-01-27T09:30:21.387Z,79.65
2019-01-27T09:31:21.343Z,79.65
2019-01-27T09:32:21.325Z,79.86
2019-01-27T09:33:21.361Z,79.44
2019-01-27T09:34:21.304Z,80.06
2019-01-27T09:35:21.293Z,80.16
2019-01-27T09:36:21.285Z,80.37
2019-01-27T09:37:21.380Z,79.86
2019-01-27T09:38:21.263Z,80.37
2019-01-27T09:39:21.306Z,80.27
2019-01-27T09:40:21.252Z,79.61
2019-01-27T09:41:21.250Z,79.86
2019-01-27T09:42:21.216Z,79.44
2019-01-27T09:43:21.207Z,79.75
2019-01-27T09:44:21.195Z,79.75
2019-01-27T09:45:21.224Z,79.14
2019-01-27T09:46:21.177Z,79.96
2019-01-27T09:47:21.171Z,79.96
2019-01-27T09:48:21.154Z,79.44
2019-01-27T09:49:21.170Z,80.06
2019-01-27T09:50:21.132Z,79.96
2019-01-27T09:51:21.156Z,80.06
2019-01-27T09:52:21.135Z,80.16
2019-01-27T09:53:21.096Z,80.27
2019-01-27T09:54:21.086Z,80.37
2019-01-27T09:55:21.083Z,80.16
2019-01-27T09:56:21.066Z,80.27
2019-01-27T09:57:21.105Z,79.86
2019-01-27T09:58:21.042Z,79.65
2019-01-27T09:59:21.033Z,79.72
2019-01-27T10:00:21.024Z,80.16
2019-01-27T10:01:21.008Z,79.65
2019-01-27T10:02:20.999Z,79.86
2019-01-27T10:03:21.023Z,79.75
2019-01-27T10:04:20.976Z,80.02
2019-01-27T10:05:20.969Z,80.47
2019-01-27T10:06:20.955Z,79.75
2019-01-27T10:07:20.945Z,80.06
2019-01-27T10:08:20.942Z,79.55
2019-01-27T10:09:20.961Z,79.86
2019-01-27T10:10:20.910Z,80.27
2019-01-27T10:11:26.682Z,79.65
2019-01-27T10:12:21.888Z,80.06
2019-01-27T10:13:20.932Z,80.27
2019-01-27T10:14:21.487Z,80.47
2019-01-27T10:15:20.931Z,80.06
2019-01-27T10:16:20.849Z,80.06
2019-01-27T10:17:20.861Z,80.06
2019-01-27T10:18:20.822Z,79.96
2019-01-27T10:19:20.811Z,80.16
2019-01-27T10:20:20.808Z,80.06
2019-01-27T10:21:20.834Z,79.34
2019-01-27T10:22:20.779Z,79.82
2019-01-27T10:23:20.775Z,80.37
2019-01-27T10:24:20.760Z,79.65
2019-01-27T10:25:20.757Z,79.34
2019-01-27T10:26:20.736Z,79.44
2019-01-27T10:27:20.763Z,79.96
2019-01-27T10:28:20.717Z,79.96
2019-01-27T10:29:20.780Z,79.41
2019-01-27T10:30:20.694Z,80.06
2019-01-27T10:31:20.683Z,80.44
2019-01-27T10:32:20.688Z,79.65
2019-01-27T10:33:20.700Z,79.72
2019-01-27T10:34:20.656Z,79.82
2019-01-27T10:35:20.645Z,79.20
2019-01-27T10:36:20.637Z,79.10
2019-01-27T10:37:20.614Z,78.79
2019-01-27T10:38:20.619Z,79.61
2019-01-27T10:39:20.690Z,79.58
2019-01-27T10:40:20.588Z,79.30
2019-01-27T10:41:20.573Z,79.72
2019-01-27T10:42:20.575Z,79.61
2019-01-27T10:43:20.556Z,79.82
2019-01-27T10:44:20.574Z,79.41
2019-01-27T10:45:20.581Z,78.96
2019-01-27T10:46:20.520Z,78.79
2019-01-27T10:47:20.513Z,78.89
2019-01-27T10:48:20.501Z,79.72
2019-01-27T10:49:20.483Z,79.72
2019-01-27T10:50:20.484Z,79.82
2019-01-27T10:51:20.533Z,79.61
2019-01-27T10:52:20.470Z,79.20
2019-01-27T10:53:21.007Z,79.93
2019-01-27T10:54:20.448Z,80.23
2019-01-27T10:55:20.426Z,80.54
2019-01-27T10:56:20.408Z,80.13
2019-01-27T10:57:20.435Z,80.23
2019-01-27T10:58:20.390Z,79.86
2019-01-27T10:59:20.378Z,80.16
2019-01-27T11:00:20.366Z,80.79
2019-01-27T11:01:20.353Z,80.47
2019-01-27T11:02:20.457Z,80.68
2019-01-27T11:03:20.370Z,80.58
2019-01-27T11:04:20.318Z,80.37
2019-01-27T11:05:20.310Z,80.47
2019-01-27T11:06:20.301Z,81.09
2019-01-27T11:07:20.388Z,80.47
2019-01-27T11:08:20.309Z,80.79
2019-01-27T11:09:20.370Z,81.81
2019-01-27T11:10:20.252Z,81.61
2019-01-27T11:11:20.243Z,81.61
2019-01-27T11:12:20.241Z,81.61
2019-01-27T11:13:20.221Z,81.61
2019-01-27T11:14:20.208Z,81.81
2019-01-27T11:15:20.233Z,81.57
2019-01-27T11:16:20.193Z,81.40
2019-01-27T11:17:20.182Z,81.51
2019-01-27T11:18:20.173Z,81.51
2019-01-27T11:19:20.161Z,81.51
2019-01-27T11:20:20.149Z,82.33
2019-01-27T11:21:20.170Z,81.61
2019-01-27T11:22:20.124Z,81.92
2019-01-27T11:23:20.113Z,82.09
2019-01-27T11:24:20.102Z,81.88
2019-01-27T11:25:20.095Z,81.88
2019-01-27T11:26:20.084Z,81.67
2019-01-27T11:27:20.105Z,82.05
2019-01-27T11:28:20.055Z,81.39
2019-01-27T11:29:20.044Z,81.29
2019-01-27T11:30:20.046Z,81.60
2019-01-27T11:31:20.045Z,80.98
2019-01-27T11:32:20.012Z,81.29
2019-01-27T11:33:20.144Z,80.12
2019-01-27T11:34:20.029Z,80.22
2019-01-27T11:35:22.074Z,79.61
2019-01-27T11:36:19.982Z,78.23
2019-01-27T11:37:19.963Z,78.71
2019-01-27T11:38:19.951Z,79.05
2019-01-27T11:39:19.975Z,77.99
2019-01-27T11:40:19.940Z,77.89
2019-01-27T11:41:19.934Z,78.64
2019-01-27T11:42:19.903Z,79.63
2019-01-27T11:43:19.895Z,78.09
2019-01-27T11:44:19.891Z,78.54
2019-01-27T11:45:19.906Z,78.40
2019-01-27T11:46:19.879Z,78.81
2019-01-27T11:47:19.857Z,78.50
2019-01-27T11:48:19.844Z,77.92
2019-01-27T11:49:19.833Z,78.03
2019-01-27T11:50:19.820Z,77.62
2019-01-27T11:51:19.886Z,77.78
2019-01-27T11:52:19.799Z,78.61
2019-01-27T11:53:19.835Z,78.61
2019-01-27T11:54:19.777Z,78.50
2019-01-27T11:55:19.772Z,79.43
2019-01-27T11:56:19.751Z,77.89
2019-01-27T11:57:19.778Z,78.61
2019-01-27T11:58:19.732Z,79.94
2019-01-27T11:59:19.720Z,80.35
2019-01-27T12:00:19.719Z,79.84
2019-01-27T12:01:19.723Z,80.66
2019-01-27T12:02:19.696Z,80.66
2019-01-27T12:03:19.727Z,81.55
2019-01-27T12:04:19.668Z,81.48
2019-01-27T12:05:19.656Z,80.97
2019-01-27T12:06:19.643Z,79.39
2019-01-27T12:07:19.638Z,78.88
2019-01-27T12:08:19.625Z,78.94
2019-01-27T12:09:19.643Z,78.33
2019-01-27T12:10:19.606Z,78.60
2019-01-27T12:11:19.593Z,76.24
2019-01-27T12:12:19.587Z,76.24
2019-01-27T12:13:19.574Z,76.75
2019-01-27T12:14:19.555Z,77.64
2019-01-27T12:15:19.732Z,76.41
2019-01-27T12:16:19.544Z,76.62
2019-01-27T12:17:19.523Z,76.20
2019-01-27T12:18:19.559Z,75.49
2019-01-27T12:19:19.506Z,74.80
2019-01-27T12:20:19.493Z,75.93
2019-01-27T12:21:19.538Z,75.42
2019-01-27T12:22:19.469Z,75.32
2019-01-27T12:23:19.459Z,74.08
2019-01-27T12:24:19.464Z,75.18
2019-01-27T12:25:19.438Z,75.49
2019-01-27T12:26:19.430Z,75.59
2019-01-27T12:27:19.451Z,74.84
2019-01-27T12:28:19.409Z,74.84
2019-01-27T12:29:19.403Z,73.44
2019-01-27T12:30:19.386Z,73.71
2019-01-27T12:31:19.374Z,73.71
2019-01-27T12:32:19.364Z,73.30
2019-01-27T12:33:19.497Z,74.26
2019-01-27T12:34:19.347Z,74.73
2019-01-27T12:35:19.330Z,74.36
2019-01-27T12:36:19.326Z,73.74
2019-01-27T12:37:19.336Z,73.68
2019-01-27T12:38:19.296Z,73.98
2019-01-27T12:39:19.329Z,74.66
2019-01-27T12:40:19.293Z,74.53
2019-01-27T12:41:19.269Z,74.02
2019-01-27T12:42:19.272Z,72.78
2019-01-27T12:43:19.253Z,72.78
2019-01-27T12:44:19.236Z,73.61
2019-01-27T12:45:19.257Z,73.30
2019-01-27T12:46:19.215Z,73.27
2019-01-27T12:47:19.215Z,74.22
2019-01-27T12:48:19.197Z,74.32
2019-01-27T12:49:19.178Z,74.22
2019-01-27T12:50:19.181Z,74.02
2019-01-27T12:51:19.195Z,73.71
2019-01-27T12:52:19.164Z,73.61